createdAt,value
2023-02-04T00:01:31.173Z,5.37
2023-02-04T00:03:58.766Z,4.43
2023-02-04T00:06:26.317Z,3.87
2023-02-04T00:08:53.883Z,4.27
2023-02-04T00:11:21.435Z,3.57
2023-02-04T00:13:48.993Z,3.63
2023-02-04T00:16:16.589Z,4.30
2023-02-04T00:18:44.112Z,4.20
2023-02-04T00:21:11.588Z,3.97
2023-02-04T00:23:39.176Z,4.27
2023-02-04T00:26:06.758Z,3.97
2023-02-04T00:28:34.285Z,3.57
2023-02-04T00:31:01.844Z,4.63
2023-02-04T00:33:29.384Z,3.63
2023-02-04T00:35:56.813Z,3.73
2023-02-04T00:38:24.384Z,4.57
2023-02-04T00:40:51.890Z,4.50
2023-02-04T00:43:19.436Z,3.83
2023-02-04T00:45:46.969Z,4.50
2023-02-04T00:48:14.563Z,4.27
2023-02-04T00:50:42.006Z,4.07
2023-02-04T00:53:09.536Z,3.97
2023-02-04T00:55:37.022Z,3.83
2023-02-04T00:58:04.558Z,3.97
2023-02-04T01:00:32.442Z,4.43
2023-02-04T01:03:00.137Z,5.07
2023-02-04T01:05:27.662Z,4.70
2023-02-04T01:07:55.428Z,4.53
2023-02-04T01:10:22.895Z,4.07
2023-02-04T01:12:50.871Z,4.67
2023-02-04T01:15:18.514Z,3.90
2023-02-04T01:17:46.009Z,4.47
2023-02-04T01:20:13.525Z,4.27
2023-02-04T01:22:41.215Z,3.93
2023-02-04T01:25:08.732Z,3.93
2023-02-04T01:27:36.303Z,4.53
2023-02-04T01:30:04.704Z,3.67
2023-02-04T01:32:32.230Z,3.90
2023-02-04T01:34:59.749Z,3.83
2023-02-04T01:37:27.269Z,3.67
2023-02-04T01:39:54.747Z,3.70
2023-02-04T01:42:22.273Z,3.80
2023-02-04T01:44:49.988Z,3.53
2023-02-04T01:47:17.571Z,4.50
2023-02-04T01:49:45.422Z,3.93
2023-02-04T01:52:13.146Z,4.67
2023-02-04T01:54:40.650Z,4.27
2023-02-04T01:57:10.171Z,4.13
2023-02-04T01:59:37.716Z,3.90
2023-02-04T02:02:25.158Z,4.20
2023-02-04T02:04:52.669Z,3.67
2023-02-04T02:07:20.121Z,3.87
2023-02-04T02:09:47.676Z,4.77
2023-02-04T02:12:15.141Z,4.60
2023-02-04T02:14:42.702Z,4.43
2023-02-04T02:17:10.217Z,4.93
2023-02-04T02:19:38.204Z,4.60
2023-02-04T02:22:05.676Z,3.60
2023-02-04T02:24:34.967Z,4.10
2023-02-04T02:27:03.975Z,4.83
2023-02-04T02:29:31.467Z,3.90
2023-02-04T02:31:59.538Z,3.67
2023-02-04T02:34:27.765Z,3.70
2023-02-04T02:36:55.600Z,3.93
2023-02-04T02:39:23.231Z,4.23
2023-02-04T02:41:50.788Z,4.70
2023-02-04T02:44:18.816Z,3.70
2023-02-04T02:46:46.370Z,3.87
2023-02-04T02:49:15.602Z,4.33
2023-02-04T02:51:43.315Z,3.83
2023-02-04T02:54:33.851Z,4.37
2023-02-04T02:57:01.332Z,3.90
2023-02-04T02:59:28.844Z,4.17
2023-02-04T03:01:59.190Z,4.43
2023-02-04T03:04:28.788Z,3.90
2023-02-04T03:06:56.314Z,4.30
2023-02-04T03:09:25.489Z,4.47
2023-02-04T03:11:53.104Z,3.63
2023-02-04T03:14:20.930Z,4.37
2023-02-04T03:16:48.787Z,4.73
2023-02-04T03:19:16.621Z,4.13
2023-02-04T03:21:44.100Z,4.73
2023-02-04T03:24:12.091Z,4.33
2023-02-04T03:26:39.591Z,5.03
2023-02-04T03:29:07.805Z,4.13
2023-02-04T03:31:35.494Z,4.63
2023-02-04T03:34:03.116Z,4.83
2023-02-04T03:36:30.891Z,4.70
2023-02-04T03:38:58.475Z,5.00
2023-02-04T03:41:25.905Z,3.70
2023-02-04T03:43:53.417Z,4.37
2023-02-04T03:46:20.908Z,4.37
2023-02-04T03:48:48.503Z,4.40
2023-02-04T03:51:15.963Z,4.13
2023-02-04T03:53:43.514Z,3.90
2023-02-04T03:56:10.999Z,4.13
2023-02-04T03:58:38.576Z,3.83
2023-02-04T04:01:06.128Z,4.07
2023-02-04T04:03:33.625Z,3.97
2023-02-04T04:06:01.120Z,3.90
2023-02-04T04:08:28.725Z,3.93
2023-02-04T04:10:56.183Z,4.20
2023-02-04T04:13:23.703Z,3.73
2023-02-04T04:15:51.201Z,4.20
2023-02-04T04:18:18.770Z,4.93
2023-02-04T04:20:46.372Z,4.17
2023-02-04T04:23:13.911Z,4.63
2023-02-04T04:25:41.377Z,4.07
2023-02-04T04:28:08.928Z,3.77
2023-02-04T04:30:36.469Z,4.17
2023-02-04T04:33:04.043Z,5.03
2023-02-04T04:35:31.497Z,3.60
2023-02-04T04:37:59.012Z,4.20
2023-02-04T04:40:26.476Z,4.57
2023-02-04T04:42:53.962Z,4.20
2023-02-04T04:45:21.896Z,5.53
2023-02-04T04:47:49.389Z,4.10
2023-02-04T04:50:16.922Z,5.57
2023-02-04T04:52:44.475Z,5.40
2023-02-04T04:55:11.923Z,6.97
2023-02-04T04:57:39.494Z,5.80
2023-02-04T05:00:07.900Z,5.53
2023-02-04T05:02:35.386Z,6.07
2023-02-04T05:05:02.891Z,6.03
2023-02-04T05:07:30.414Z,6.27
2023-02-04T05:09:57.891Z,5.93
2023-02-04T05:12:25.488Z,6.27
2023-02-04T05:14:53.027Z,5.17
2023-02-04T05:17:20.557Z,5.17
2023-02-04T05:19:48.050Z,5.20
2023-02-04T05:22:15.659Z,5.83
2023-02-04T05:24:43.302Z,7.93
2023-02-04T05:27:10.851Z,6.97
2023-02-04T05:29:38.320Z,5.90
2023-02-04T05:32:06.174Z,5.73
2023-02-04T05:34:33.669Z,5.53
2023-02-04T05:37:01.201Z,6.23
2023-02-04T05:39:28.666Z,5.53
2023-02-04T05:41:56.165Z,5.60
2023-02-04T05:44:23.637Z,4.97
2023-02-04T05:46:51.116Z,5.47
2023-02-04T05:49:18.575Z,4.77
2023-02-04T05:51:46.129Z,5.47
2023-02-04T05:54:13.597Z,5.83
2023-02-04T05:56:41.055Z,5.47
2023-02-04T05:59:08.512Z,5.10
2023-02-04T06:01:36.009Z,5.23
2023-02-04T06:04:03.576Z,5.60
2023-02-04T06:06:31.076Z,4.97
2023-02-04T06:08:58.505Z,5.93
2023-02-04T06:11:26.004Z,5.50
2023-02-04T06:13:53.485Z,5.13
2023-02-04T06:16:21.041Z,5.47
2023-02-04T06:18:51.364Z,5.63
2023-02-04T06:21:18.969Z,6.10
2023-02-04T06:23:46.533Z,5.23
2023-02-04T06:26:14.057Z,5.93
2023-02-04T06:28:41.490Z,5.30
2023-02-04T06:31:09.134Z,5.90
2023-02-04T06:33:37.107Z,5.10
2023-02-04T06:36:05.354Z,5.93
2023-02-04T06:38:32.809Z,6.17
2023-02-04T06:41:00.403Z,5.70
2023-02-04T06:43:27.999Z,6.13
2023-02-04T06:45:55.617Z,6.03
2023-02-04T06:48:23.085Z,5.13
2023-02-04T06:50:50.712Z,6.03
2023-02-04T06:53:18.200Z,7.10
2023-02-04T06:55:45.695Z,7.73
2023-02-04T06:58:13.182Z,7.00
2023-02-04T07:00:40.880Z,7.33
2023-02-04T07:03:08.346Z,7.47
2023-02-04T07:05:35.997Z,7.27
2023-02-04T07:08:03.459Z,7.93
2023-02-04T07:10:31.393Z,7.90
2023-02-04T07:12:59.503Z,7.37
2023-02-04T07:15:26.999Z,6.90
2023-02-04T07:17:54.500Z,7.10
2023-02-04T07:20:22.053Z,6.27
2023-02-04T07:22:49.532Z,6.87
2023-02-04T07:25:17.047Z,6.00
2023-02-04T07:27:44.558Z,6.27
2023-02-04T07:30:12.474Z,7.80
2023-02-04T07:32:39.934Z,7.70
2023-02-04T07:35:07.782Z,7.47
2023-02-04T07:37:35.299Z,7.10
2023-02-04T07:40:02.784Z,7.57
2023-02-04T07:42:30.261Z,8.90
2023-02-04T07:44:57.770Z,9.40
2023-02-04T07:47:25.274Z,9.20
2023-02-04T07:49:52.794Z,6.63
2023-02-04T07:52:20.233Z,8.30
2023-02-04T07:54:47.766Z,7.70
2023-02-04T07:57:15.330Z,7.97
2023-02-04T07:59:42.821Z,8.13
2023-02-04T08:02:10.495Z,6.47
2023-02-04T08:04:38.016Z,7.57
2023-02-04T08:07:05.514Z,6.63
2023-02-04T08:09:33.026Z,7.60
2023-02-04T08:12:00.566Z,7.63
2023-02-04T08:14:28.076Z,6.10
2023-02-04T08:16:55.654Z,7.00
2023-02-04T08:19:23.529Z,7.53
2023-02-04T08:21:51.056Z,8.40
2023-02-04T08:24:18.581Z,7.43
2023-02-04T08:26:46.062Z,7.10
2023-02-04T08:29:13.586Z,7.07
2023-02-04T08:31:41.182Z,7.37
2023-02-04T08:34:08.717Z,7.43
2023-02-04T08:36:36.201Z,7.97
2023-02-04T08:39:03.756Z,6.50
2023-02-04T08:41:31.232Z,7.83
2023-02-04T08:43:58.726Z,6.43
2023-02-04T08:46:26.247Z,6.53
2023-02-04T08:48:53.843Z,8.33
2023-02-04T08:51:21.407Z,6.90
2023-02-04T08:53:48.965Z,6.67
2023-02-04T08:56:16.428Z,7.57
2023-02-04T08:58:44.671Z,8.13
2023-02-04T09:01:12.172Z,7.33
2023-02-04T09:03:39.707Z,7.17
2023-02-04T09:06:07.712Z,6.43
2023-02-04T09:08:35.279Z,7.00
2023-02-04T09:11:02.808Z,6.83
2023-02-04T09:13:32.161Z,8.00
2023-02-04T09:15:59.868Z,6.67
2023-02-04T09:18:27.420Z,7.13
2023-02-04T09:20:54.906Z,7.30
2023-02-04T09:23:22.356Z,6.80
2023-02-04T09:25:49.887Z,6.90
2023-02-04T09:28:17.799Z,6.40
2023-02-04T09:30:46.139Z,6.40
2023-02-04T09:33:14.524Z,6.47
2023-02-04T09:35:42.040Z,7.07
2023-02-04T09:38:09.577Z,6.43
2023-02-04T09:40:41.839Z,7.30
2023-02-04T09:43:12.977Z,7.97
2023-02-04T09:45:40.630Z,6.97
2023-02-04T09:48:10.199Z,7.07
2023-02-04T09:50:38.004Z,6.67
2023-02-04T09:53:07.087Z,7.83
2023-02-04T09:55:35.966Z,7.67
2023-02-04T09:58:03.949Z,7.70
2023-02-04T10:00:31.994Z,7.97
2023-02-04T10:03:01.350Z,8.93
2023-02-04T10:05:30.278Z,8.77
2023-02-04T10:07:58.569Z,9.07
2023-02-04T10:10:27.320Z,9.30
2023-02-04T10:12:57.794Z,10.40
2023-02-04T10:15:25.371Z,10.57
2023-02-04T10:17:54.288Z,10.03
2023-02-04T10:20:24.721Z,8.80
2023-02-04T10:22:53.780Z,9.60
2023-02-04T10:25:22.416Z,9.30
2023-02-04T10:28:00.566Z,9.30
2023-02-04T10:30:33.312Z,8.43
2023-02-04T10:33:01.470Z,9.37
2023-02-04T10:35:28.954Z,9.33
2023-02-04T10:38:03.525Z,7.60
2023-02-04T10:40:32.422Z,8.47
2023-02-04T10:43:00.531Z,8.50
2023-02-04T10:45:30.314Z,8.23
2023-02-04T10:47:58.104Z,8.37
2023-02-04T10:50:26.196Z,8.27
2023-02-04T10:52:55.140Z,8.10
2023-02-04T10:55:23.338Z,7.90
2023-02-04T10:57:52.606Z,7.77
2023-02-04T11:00:21.284Z,7.07
2023-02-04T11:03:00.306Z,7.00
2023-02-04T11:05:31.659Z,7.83
2023-02-04T11:07:59.355Z,7.10
2023-02-04T11:10:32.073Z,7.20
2023-02-04T11:13:01.680Z,7.70
2023-02-04T11:15:41.283Z,7.90
2023-02-04T11:18:10.390Z,7.77
2023-02-04T11:20:38.655Z,6.23
2023-02-04T11:23:24.832Z,7.07
2023-02-04T11:26:12.785Z,7.43
2023-02-04T11:28:46.442Z,7.37
2023-02-04T11:31:20.108Z,7.23
2023-02-04T11:33:47.810Z,6.73
2023-02-04T11:36:15.782Z,8.33
2023-02-04T11:38:47.331Z,8.87
2023-02-04T11:41:24.225Z,5.97
2023-02-04T11:43:52.619Z,6.97
2023-02-04T11:46:20.231Z,5.87
2023-02-04T11:48:47.880Z,6.10
2023-02-04T11:51:16.722Z,6.40
2023-02-04T11:53:44.511Z,5.97
2023-02-04T11:56:18.482Z,7.07
2023-02-04T11:58:46.037Z,7.13
2023-02-04T12:01:23.694Z,8.03
2023-02-04T12:03:56.768Z,7.50
2023-02-04T12:06:25.243Z,6.63
2023-02-04T12:08:52.707Z,6.73
2023-02-04T12:11:26.019Z,7.07
2023-02-04T12:13:55.138Z,5.60
2023-02-04T12:16:22.978Z,6.73
2023-02-04T12:18:50.847Z,6.10
2023-02-04T12:21:18.879Z,6.57
2023-02-04T12:23:46.464Z,6.43
2023-02-04T12:26:14.182Z,5.93
2023-02-04T12:28:41.716Z,5.53
2023-02-04T12:31:09.431Z,5.67
2023-02-04T12:33:37.106Z,5.40
2023-02-04T12:36:04.746Z,5.27
2023-02-04T12:38:32.281Z,5.53
2023-02-04T12:40:59.869Z,5.70
2023-02-04T12:43:28.388Z,6.90
2023-02-04T12:45:55.988Z,5.57
2023-02-04T12:48:23.655Z,5.53
2023-02-04T12:50:51.173Z,5.80
2023-02-04T12:53:18.707Z,5.83
2023-02-04T12:55:46.197Z,5.03
2023-02-04T12:58:13.727Z,6.50
2023-02-04T13:00:41.247Z,6.20
2023-02-04T13:03:08.851Z,6.80
2023-02-04T13:05:36.389Z,6.50
2023-02-04T13:08:03.957Z,4.20
2023-02-04T13:10:31.468Z,5.37
2023-02-04T13:12:58.986Z,4.80
2023-02-04T13:15:26.605Z,5.13
2023-02-04T13:17:54.106Z,4.43
2023-02-04T13:20:21.903Z,5.30
2023-02-04T13:22:49.447Z,5.03
2023-02-04T13:25:17.420Z,6.83
2023-02-04T13:27:45.076Z,6.13
2023-02-04T13:30:15.827Z,5.60
2023-02-04T13:32:43.442Z,6.30
2023-02-04T13:35:10.949Z,5.53
2023-02-04T13:37:38.563Z,5.67
2023-02-04T13:40:06.880Z,4.90
2023-02-04T13:42:34.479Z,4.60
2023-02-04T13:45:01.999Z,6.57
2023-02-04T13:47:29.500Z,5.37
2023-02-04T13:49:57.015Z,5.27
2023-02-04T13:52:24.614Z,6.13
2023-02-04T13:54:52.116Z,5.37
2023-02-04T13:57:19.639Z,5.43
2023-02-04T13:59:47.139Z,5.97
2023-02-04T14:02:14.741Z,6.63
2023-02-04T14:04:42.234Z,6.43
2023-02-04T14:07:09.967Z,7.40
2023-02-04T14:09:37.497Z,5.90
2023-02-04T14:12:05.145Z,5.87
2023-02-04T14:14:32.681Z,5.10
2023-02-04T14:17:00.228Z,4.97
2023-02-04T14:19:27.700Z,4.97
2023-02-04T14:21:55.301Z,4.37
2023-02-04T14:24:22.905Z,5.20
2023-02-04T14:26:50.640Z,4.93
2023-02-04T14:29:18.770Z,4.73
2023-02-04T14:31:46.344Z,4.33
2023-02-04T14:34:13.866Z,4.90
2023-02-04T14:36:41.692Z,4.37
2023-02-04T14:39:09.233Z,4.93
2023-02-04T14:41:36.735Z,4.13
2023-02-04T14:44:04.238Z,4.87
2023-02-04T14:46:31.905Z,4.10
2023-02-04T14:48:59.362Z,5.30
2023-02-04T14:51:26.940Z,4.43
2023-02-04T14:53:54.438Z,4.20
2023-02-04T14:56:21.970Z,5.83
2023-02-04T14:58:49.507Z,5.33
2023-02-04T15:01:17.140Z,4.20
2023-02-04T15:03:44.620Z,4.17
2023-02-04T15:06:12.106Z,4.47
2023-02-04T15:08:39.629Z,4.40
2023-02-04T15:11:07.192Z,5.37
2023-02-04T15:13:34.680Z,4.77
2023-02-04T15:16:02.575Z,5.17
2023-02-04T15:18:30.626Z,6.13
2023-02-04T15:20:58.202Z,6.23
2023-02-04T15:23:25.737Z,6.00
2023-02-04T15:25:53.272Z,4.43
2023-02-04T15:28:20.864Z,4.57
2023-02-04T15:30:50.347Z,5.47
2023-02-04T15:33:17.875Z,5.27
2023-02-04T15:35:45.336Z,5.40
2023-02-04T15:38:12.903Z,4.37
2023-02-04T15:40:40.351Z,5.20
2023-02-04T15:43:07.845Z,4.47
2023-02-04T15:45:35.355Z,5.70
2023-02-04T15:48:02.906Z,4.70
2023-02-04T15:50:30.652Z,5.07
2023-02-04T15:52:58.272Z,5.20
2023-02-04T15:55:25.785Z,5.67
2023-02-04T15:57:53.452Z,5.07
2023-02-04T16:00:21.042Z,4.87
2023-02-04T16:02:48.643Z,4.80
2023-02-04T16:05:16.247Z,5.10
2023-02-04T16:07:43.893Z,5.47
2023-02-04T16:10:11.450Z,5.43
2023-02-04T16:12:39.017Z,4.43
2023-02-04T16:15:06.785Z,5.20
2023-02-04T16:17:34.360Z,5.13
2023-02-04T16:20:02.214Z,4.30
2023-02-04T16:22:30.127Z,4.83
2023-02-04T16:24:57.791Z,4.90
2023-02-04T16:27:25.453Z,4.80
2023-02-04T16:29:54.846Z,4.63
2023-02-04T16:32:23.507Z,3.87
2023-02-04T16:34:51.059Z,4.77
2023-02-04T16:37:18.678Z,4.57
2023-02-04T16:39:46.322Z,4.20
2023-02-04T16:42:13.894Z,5.30
2023-02-04T16:44:41.435Z,6.30
2023-02-04T16:47:09.253Z,6.03
2023-02-04T16:49:36.873Z,5.83
2023-02-04T16:52:04.941Z,5.27
2023-02-04T16:54:33.006Z,4.60
2023-02-04T16:57:00.682Z,4.57
2023-02-04T16:59:28.866Z,5.70
2023-02-04T17:01:57.044Z,6.90
2023-02-04T17:04:24.950Z,6.47
2023-02-04T17:06:52.504Z,6.77
2023-02-04T17:09:20.140Z,5.33
2023-02-04T17:11:47.655Z,5.17
2023-02-04T17:14:15.180Z,5.07
2023-02-04T17:16:43.136Z,6.30
2023-02-04T17:19:10.718Z,6.33
2023-02-04T17:21:38.401Z,5.47
2023-02-04T17:24:09.239Z,18.97
2023-02-04T17:26:37.723Z,13.67
2023-02-04T17:29:06.028Z,12.97
2023-02-04T17:31:33.593Z,12.80
2023-02-04T17:34:01.121Z,9.63
2023-02-04T17:36:29.258Z,7.40
2023-02-04T17:38:56.826Z,6.70
2023-02-04T17:41:24.323Z,6.17
2023-02-04T17:43:51.780Z,6.67
2023-02-04T17:46:19.346Z,7.90
2023-02-04T17:48:46.851Z,9.10
2023-02-04T17:51:14.791Z,7.07
2023-02-04T17:53:42.304Z,6.07
2023-02-04T17:56:13.700Z,6.27
2023-02-04T17:58:42.160Z,6.10
2023-02-04T18:01:18.113Z,5.40
2023-02-04T18:03:45.987Z,5.07
2023-02-04T18:06:19.724Z,5.53
2023-02-04T18:08:47.556Z,5.37
2023-02-04T18:11:22.723Z,7.40
2023-02-04T18:13:50.689Z,6.57
2023-02-04T18:16:24.418Z,6.63
2023-02-04T18:18:52.875Z,5.73
2023-02-04T18:21:27.611Z,5.20
2023-02-04T18:24:01.395Z,6.37
2023-02-04T18:26:28.958Z,6.13
2023-02-04T18:28:56.440Z,6.70
2023-02-04T18:31:33.764Z,6.03
2023-02-04T18:34:02.270Z,5.73
2023-02-04T18:36:29.859Z,6.13
2023-02-04T18:38:57.599Z,7.07
2023-02-04T18:41:29.776Z,6.53
2023-02-04T18:43:59.860Z,7.00
2023-02-04T18:46:28.606Z,6.73
2023-02-04T18:49:06.898Z,7.60
2023-02-04T18:51:40.977Z,6.23
2023-02-04T18:54:27.174Z,6.93
2023-02-04T18:56:56.227Z,7.40
2023-02-04T18:59:25.616Z,9.33
2023-02-04T19:01:53.160Z,11.20
2023-02-04T19:04:22.245Z,7.83
2023-02-04T19:06:50.416Z,8.87
2023-02-04T19:09:23.633Z,9.37
2023-02-04T19:11:55.326Z,8.03
2023-02-04T19:14:22.848Z,7.93
2023-02-04T19:16:51.076Z,8.53
2023-02-04T19:19:34.056Z,7.77
2023-02-04T19:22:01.750Z,8.37
2023-02-04T19:24:29.606Z,8.67
2023-02-04T19:26:58.624Z,8.90
2023-02-04T19:29:26.177Z,8.03
2023-02-04T19:31:56.374Z,7.77
2023-02-04T19:34:28.981Z,7.40
2023-02-04T19:36:56.505Z,7.33
2023-02-04T19:39:34.485Z,6.87
2023-02-04T19:42:02.123Z,7.07
2023-02-04T19:44:35.737Z,8.17
2023-02-04T19:47:23.565Z,7.17
2023-02-04T19:49:51.802Z,7.80
2023-02-04T19:52:39.606Z,8.27
2023-02-04T19:55:23.236Z,8.30
2023-02-04T19:57:52.152Z,8.10
2023-02-04T20:00:25.434Z,8.43
2023-02-04T20:02:52.967Z,8.40
2023-02-04T20:05:21.227Z,8.00
2023-02-04T20:07:48.777Z,8.17
2023-02-04T20:10:25.004Z,8.27
2023-02-04T20:12:53.148Z,7.57
2023-02-04T20:15:21.450Z,7.40
2023-02-04T20:17:49.791Z,7.03
2023-02-04T20:20:22.086Z,6.77
2023-02-04T20:22:49.590Z,8.17
2023-02-04T20:25:19.953Z,7.57
2023-02-04T20:27:53.074Z,7.67
2023-02-04T20:30:24.051Z,7.30
2023-02-04T20:32:55.824Z,8.60
2023-02-04T20:35:23.323Z,9.20
2023-02-04T20:37:54.340Z,8.30
2023-02-04T20:40:24.978Z,8.80
2023-02-04T20:42:59.185Z,39.70
2023-02-04T20:45:36.769Z,12.40
2023-02-04T20:48:16.581Z,13.43
2023-02-04T20:50:54.133Z,12.70
2023-02-04T20:53:23.192Z,10.57
2023-02-04T20:55:52.098Z,9.40
2023-02-04T20:58:22.407Z,10.30
2023-02-04T21:00:52.452Z,9.80
2023-02-04T21:03:21.832Z,10.33
2023-02-04T21:05:50.349Z,12.43
2023-02-04T21:08:25.485Z,11.80
2023-02-04T21:10:53.055Z,12.87
2023-02-04T21:13:20.788Z,12.90
2023-02-04T21:15:48.348Z,13.67
2023-02-04T21:18:16.041Z,13.80
2023-02-04T21:20:43.686Z,14.63
2023-02-04T21:23:11.163Z,15.07
2023-02-04T21:25:39.854Z,12.00
2023-02-04T21:28:07.401Z,11.57
2023-02-04T21:30:35.057Z,10.47
2023-02-04T21:33:02.595Z,9.43
2023-02-04T21:35:30.170Z,9.87
2023-02-04T21:37:57.983Z,9.10
2023-02-04T21:40:25.529Z,8.23
2023-02-04T21:42:53.172Z,8.23
2023-02-04T21:45:21.499Z,9.40
2023-02-04T21:47:49.523Z,8.00
2023-02-04T21:50:17.545Z,9.53
2023-02-04T21:52:45.255Z,8.33
2023-02-04T21:55:13.360Z,7.70
2023-02-04T21:57:40.857Z,9.53
2023-02-04T22:00:09.139Z,8.97
2023-02-04T22:02:36.720Z,11.20
2023-02-04T22:05:04.356Z,8.60
2023-02-04T22:07:31.861Z,9.97
2023-02-04T22:09:59.362Z,9.57
2023-02-04T22:12:26.844Z,8.87
2023-02-04T22:14:54.294Z,9.80
2023-02-04T22:17:21.777Z,9.30
2023-02-04T22:19:49.360Z,9.90
2023-02-04T22:22:16.797Z,9.83
2023-02-04T22:24:44.454Z,9.67
2023-02-04T22:27:12.040Z,9.67
2023-02-04T22:29:39.541Z,10.83
2023-02-04T22:32:07.052Z,9.50
2023-02-04T22:34:34.560Z,9.60
2023-02-04T22:37:02.061Z,9.80
2023-02-04T22:39:29.665Z,10.63
2023-02-04T22:41:57.160Z,10.40
2023-02-04T22:44:24.703Z,10.80
2023-02-04T22:46:52.238Z,9.80
2023-02-04T22:49:20.094Z,9.47
2023-02-04T22:51:47.566Z,9.27
2023-02-04T22:54:15.224Z,9.83
2023-02-04T22:56:45.751Z,11.13
2023-02-04T22:59:13.520Z,10.33
2023-02-04T23:01:41.032Z,11.33
2023-02-04T23:04:08.630Z,11.03
2023-02-04T23:06:36.303Z,12.80
2023-02-04T23:09:03.888Z,13.07
2023-02-04T23:11:34.187Z,13.63
2023-02-04T23:14:01.698Z,13.97
2023-02-04T23:16:29.185Z,15.53
2023-02-04T23:18:56.915Z,13.93
2023-02-04T23:21:24.858Z,13.83
2023-02-04T23:23:52.596Z,13.03
2023-02-04T23:26:20.352Z,12.10
2023-02-04T23:28:47.958Z,12.33
2023-02-04T23:31:15.540Z,14.00
2023-02-04T23:33:43.085Z,14.47
2023-02-04T23:36:10.650Z,15.23
2023-02-04T23:38:38.186Z,15.57
2023-02-04T23:41:05.762Z,14.33
2023-02-04T23:43:33.309Z,15.67
2023-02-04T23:46:00.809Z,13.37
2023-02-04T23:48:28.425Z,12.83
2023-02-04T23:50:55.920Z,13.80
2023-02-04T23:53:23.523Z,13.50
2023-02-04T23:55:51.058Z,14.20
2023-02-04T23:58:18.653Z,13.00
